Time,TemperatureF,DewpointF,PressureIn,WindDirection,WindDirectionDegrees,WindSpeedMPH,WindSpeedGustMPH,Humidity,HourlyPrecipIn,Conditions,Clouds,dailyrainin,SolarRadiationWatts/m^2,SoftwareType,DateUTC
2013-06-30 00:12:00,65.1,60.1,26.74,WSW,257,0.0,0.0,84,0.00,,,0.00,0,WeatherCatV1.02B4,2013-06-30 06:12:00,
2013-06-30 00:42:00,64.0,59.7,26.75,WSW,257,0.0,0.0,86,0.00,,,0.00,0,WeatherCatV1.02B4,2013-06-30 06:42:00,
2013-06-30 00:57:00,63.5,59.2,26.76,WSW,257,0.0,0.0,86,0.00,,,0.00,0,WeatherCatV1.02B4,2013-06-30 06:57:00,
2013-06-30 01:12:00,63.0,58.4,26.77,WSW,257,0.0,0.0,85,0.00,,,0.00,0,WeatherCatV1.02B4,2013-06-30 07:12:00,
2013-06-30 01:27:00,62.7,58.4,26.77,WSW,257,0.0,1.0,86,0.00,,,0.00,0,WeatherCatV1.02B4,2013-06-30 07:27:00,
2013-06-30 01:42:00,62.0,58.4,26.78,WSW,257,0.0,0.0,88,0.00,,,0.00,0,WeatherCatV1.02B4,2013-06-30 07:42:00,
2013-06-30 01:57:00,61.5,57.9,26.78,WSW,257,0.0,1.0,88,0.00,,,0.00,0,WeatherCatV1.02B4,2013-06-30 07:57:00,
2013-06-30 02:12:00,61.3,57.4,26.79,WSW,257,0.0,0.0,87,0.00,,,0.00,0,WeatherCatV1.02B4,2013-06-30 08:12:00,
2013-06-30 02:27:00,61.0,57.4,26.79,WSW,257,0.0,0.0,88,0.00,,,0.00,0,WeatherCatV1.02B4,2013-06-30 08:27:00,
2013-06-30 02:42:00,60.7,57.1,26.80,WSW,257,0.0,0.0,88,0.00,,,0.00,0,WeatherCatV1.02B4,2013-06-30 08:42:00,
2013-06-30 02:57:00,60.3,57.0,26.80,WSW,257,0.0,0.0,89,0.00,,,0.00,0,WeatherCatV1.02B4,2013-06-30 08:57:00,
2013-06-30 03:12:00,60.0,56.7,26.81,WSW,257,0.0,0.0,89,0.00,,,0.00,0,WeatherCatV1.02B4,2013-06-30 09:12:00,
2013-06-30 03:27:00,59.7,56.8,26.81,WSW,257,0.0,0.0,90,0.00,,,0.00,0,WeatherCatV1.02B4,2013-06-30 09:27:00,
2013-06-30 03:42:00,59.2,56.3,26.81,WSW,257,0.0,1.0,90,0.00,,,0.00,0,WeatherCatV1.02B4,2013-06-30 09:42:00,
2013-06-30 03:57:00,59.1,56.2,26.81,WSW,257,0.0,1.0,90,0.00,,,0.00,0,WeatherCatV1.02B4,2013-06-30 09:57:00,
2013-06-30 04:12:00,58.9,55.7,26.81,WSW,257,0.0,0.0,89,0.00,,,0.00,0,WeatherCatV1.02B4,2013-06-30 10:12:00,
2013-06-30 04:27:00,58.5,55.3,26.82,WSW,257,0.0,1.0,89,0.00,,,0.00,0,WeatherCatV1.02B4,2013-06-30 10:27:00,
2013-06-30 04:42:00,57.8,55.2,26.82,WSW,257,0.0,0.0,91,0.00,,,0.00,0,WeatherCatV1.02B4,2013-06-30 10:42:00,
2013-06-30 04:57:00,57.7,55.1,26.83,WSW,257,0.0,0.0,91,0.00,,,0.00,0,WeatherCatV1.02B4,2013-06-30 10:57:00,
2013-06-30 05:12:00,57.3,54.7,26.84,WSW,254,1.0,2.0,91,0.00,,,0.00,0,WeatherCatV1.02B4,2013-06-30 11:12:00,
2013-06-30 05:27:00,57.1,54.8,26.84,South,169,0.0,0.0,92,0.00,,,0.00,0,WeatherCatV1.02B4,2013-06-30 11:27:00,
2013-06-30 05:42:00,56.9,54.3,26.85,South,170,0.0,0.0,91,0.00,,,0.00,0,WeatherCatV1.02B4,2013-06-30 11:42:00,
2013-06-30 05:57:00,56.6,54.3,26.86,South,169,0.0,1.0,92,0.00,,,0.00,0,WeatherCatV1.02B4,2013-06-30 11:57:00,
2013-06-30 06:12:00,56.3,54.0,26.86,South,169,0.0,1.0,92,0.00,,,0.00,7,WeatherCatV1.02B4,2013-06-30 12:12:00,
2013-06-30 06:27:00,56.1,54.1,26.87,South,169,0.0,0.0,93,0.00,,,0.00,12,WeatherCatV1.02B4,2013-06-30 12:27:00,
2013-06-30 06:42:00,56.1,54.1,26.87,South,169,0.0,0.0,93,0.00,,,0.00,19,WeatherCatV1.02B4,2013-06-30 12:42:00,
2013-06-30 06:57:00,56.4,54.7,26.87,South,169,0.0,1.0,94,0.00,,,0.00,60,WeatherCatV1.02B4,2013-06-30 12:57:00,
2013-06-30 07:12:00,56.8,55.1,26.88,South,170,1.0,1.0,94,0.00,,,0.00,100,WeatherCatV1.02B4,2013-06-30 13:12:00,
2013-06-30 07:27:00,58.3,56.6,26.88,South,170,0.0,0.0,94,0.00,,,0.00,141,WeatherCatV1.02B4,2013-06-30 13:27:00,
2013-06-30 07:42:00,59.2,57.2,26.88,South,170,0.0,0.0,93,0.00,,,0.00,190,WeatherCatV1.02B4,2013-06-30 13:42:00,
2013-06-30 07:57:00,60.9,58.3,26.88,South,170,0.0,0.0,91,0.00,,,0.00,239,WeatherCatV1.02B4,2013-06-30 13:57:00,
2013-06-30 08:12:00,62.9,59.3,26.88,South,170,0.0,1.0,88,0.00,,,0.00,281,WeatherCatV1.02B4,2013-06-30 14:12:00,
2013-06-30 08:27:00,64.5,59.2,26.88,South,170,0.0,0.0,83,0.00,,,0.00,329,WeatherCatV1.02B4,2013-06-30 14:27:00,
2013-06-30 08:42:00,66.0,59.6,26.88,South,170,0.0,0.0,80,0.00,,,0.00,374,WeatherCatV1.02B4,2013-06-30 14:42:00,
2013-06-30 08:57:00,68.1,59.5,26.88,South,170,0.0,0.0,74,0.00,,,0.00,420,WeatherCatV1.02B4,2013-06-30 14:57:00,
2013-06-30 09:12:00,69.0,59.6,26.87,South,173,1.0,2.0,72,0.00,,,0.00,464,WeatherCatV1.02B4,2013-06-30 15:12:00,
2013-06-30 09:27:00,70.3,60.0,26.87,SW,232,0.0,2.0,70,0.00,,,0.00,512,WeatherCatV1.02B4,2013-06-30 15:27:00,
2013-06-30 09:42:00,71.6,58.8,26.87,West,261,0.0,0.0,64,0.00,,,0.00,552,WeatherCatV1.02B4,2013-06-30 15:42:00,
2013-06-30 09:57:00,73.3,59.5,26.86,West,260,0.0,1.0,62,0.00,,,0.00,591,WeatherCatV1.02B4,2013-06-30 15:57:00,
2013-06-30 10:12:00,74.4,58.6,26.86,West,260,0.0,1.0,58,0.00,,,0.00,636,WeatherCatV1.02B4,2013-06-30 16:12:00,
2013-06-30 10:27:00,76.6,58.7,26.85,West,260,0.0,1.0,54,0.00,,,0.00,675,WeatherCatV1.02B4,2013-06-30 16:27:00,
2013-06-30 10:42:00,77.8,58.7,26.84,West,260,0.0,2.0,52,0.00,,,0.00,714,WeatherCatV1.02B4,2013-06-30 16:42:00,
2013-06-30 11:12:00,80.7,59.7,26.83,WSW,242,3.0,5.0,49,0.00,,,0.00,782,WeatherCatV1.02B4,2013-06-30 17:12:00,
2013-06-30 11:42:00,83.1,60.8,26.81,West,271,4.0,4.0,47,0.00,,,0.00,842,WeatherCatV1.02B4,2013-06-30 17:42:00,
2013-06-30 11:57:00,84.2,58.6,26.81,West,271,1.0,2.0,42,0.00,,,0.00,868,WeatherCatV1.02B4,2013-06-30 17:57:00,
2013-06-30 12:12:00,85.8,59.3,26.80,WSW,255,0.0,3.0,41,0.00,,,0.00,889,WeatherCatV1.02B4,2013-06-30 18:12:00,
2013-06-30 12:27:00,86.8,60.2,26.79,WSW,253,0.0,2.0,41,0.00,,,0.00,909,WeatherCatV1.02B4,2013-06-30 18:27:00,
2013-06-30 12:42:00,87.8,59.7,26.78,WSW,243,1.0,3.0,39,0.00,,,0.00,926,WeatherCatV1.02B4,2013-06-30 18:42:00,
2013-06-30 12:57:00,89.3,59.6,26.78,WSW,248,2.0,2.0,37,0.00,,,0.00,935,WeatherCatV1.02B4,2013-06-30 18:57:00,
2013-06-30 13:27:00,91.9,57.8,26.77,WSW,257,0.0,1.0,32,0.00,,,0.00,956,WeatherCatV1.02B4,2013-06-30 19:27:00,
2013-06-30 13:57:00,93.7,60.2,26.76,WSW,248,3.0,3.0,33,0.00,,,0.00,960,WeatherCatV1.02B4,2013-06-30 19:57:00,
2013-06-30 14:12:00,95.7,54.2,26.75,West,278,1.0,3.0,25,0.00,,,0.00,958,WeatherCatV1.02B4,2013-06-30 20:12:00,
2013-06-30 14:27:00,96.2,59.7,26.75,West,277,4.0,4.0,30,0.00,,,0.00,949,WeatherCatV1.02B4,2013-06-30 20:27:00,
2013-06-30 14:42:00,97.1,57.5,26.74,WNW,300,2.0,4.0,27,0.00,,,0.00,942,WeatherCatV1.02B4,2013-06-30 20:42:00,
2013-06-30 14:57:00,97.7,54.7,26.74,WSW,258,1.0,4.0,24,0.00,,,0.00,930,WeatherCatV1.02B4,2013-06-30 20:57:00,
2013-06-30 15:12:00,98.1,55.1,26.73,West,265,4.0,7.0,24,0.00,,,0.00,916,WeatherCatV1.02B4,2013-06-30 21:12:00,
2013-06-30 15:27:00,98.6,56.6,26.73,NW,310,1.0,3.0,25,0.00,,,0.00,896,WeatherCatV1.02B4,2013-06-30 21:27:00,
2013-06-30 15:42:00,98.9,54.6,26.72,WNW,289,3.0,4.0,23,0.00,,,0.00,877,WeatherCatV1.02B4,2013-06-30 21:42:00,
2013-06-30 15:57:00,99.1,55.9,26.72,WNW,302,1.0,4.0,24,0.00,,,0.00,858,WeatherCatV1.02B4,2013-06-30 21:57:00,
2013-06-30 16:12:00,99.2,56.0,26.72,West,279,2.0,4.0,24,0.00,,,0.00,833,WeatherCatV1.02B4,2013-06-30 22:12:00,
2013-06-30 16:42:00,100.5,52.1,26.70,NNW,335,1.0,3.0,20,0.00,,,0.00,780,WeatherCatV1.02B4,2013-06-30 22:42:00,
2013-06-30 16:57:00,100.6,52.2,26.69,West,280,2.0,4.0,20,0.00,,,0.00,740,WeatherCatV1.02B4,2013-06-30 22:57:00,
2013-06-30 17:12:00,100.3,51.9,26.69,WNW,287,1.0,3.0,20,0.00,,,0.00,700,WeatherCatV1.02B4,2013-06-30 23:12:00,
2013-06-30 17:42:00,101.0,53.8,26.68,SW,225,1.0,1.0,21,0.00,,,0.00,622,WeatherCatV1.02B4,2013-06-30 23:42:00,
2013-06-30 17:57:00,100.9,57.4,26.67,WNW,300,5.0,5.0,24,0.00,,,0.00,585,WeatherCatV1.02B4,2013-06-30 23:57:00,
2013-06-30 18:12:00,100.3,53.2,26.66,WNW,285,4.0,4.0,21,0.00,,,0.00,531,WeatherCatV1.02B4,2013-07-01 00:12:00,
2013-06-30 18:27:00,100.3,59.1,26.66,NW,319,2.0,3.0,26,0.00,,,0.00,490,WeatherCatV1.02B4,2013-07-01 00:27:00,
2013-06-30 18:42:00,100.2,58.0,26.65,NNW,340,1.0,1.0,25,0.00,,,0.00,439,WeatherCatV1.02B4,2013-07-01 00:42:00,
2013-06-30 18:57:00,99.7,58.6,26.64,NW,321,1.0,2.0,26,0.00,,,0.00,399,WeatherCatV1.02B4,2013-07-01 00:57:00,
2013-06-30 19:12:00,99.5,55.1,26.64,NNW,348,0.0,1.0,23,0.00,,,0.00,350,WeatherCatV1.02B4,2013-07-01 01:12:00,
2013-06-30 19:27:00,98.2,61.4,26.65,WNW,297,3.0,4.0,30,0.00,,,0.00,311,WeatherCatV1.02B4,2013-07-01 01:27:00,
2013-06-30 19:42:00,96.6,59.1,26.66,NNW,342,0.0,4.0,29,0.00,,,0.00,267,WeatherCatV1.02B4,2013-07-01 01:42:00,
2013-06-30 19:57:00,95.8,57.4,26.67,North,355,1.0,6.0,28,0.00,,,0.00,221,WeatherCatV1.02B4,2013-07-01 01:57:00,
2013-06-30 20:12:00,95.2,55.9,26.67,North,5,5.0,6.0,27,0.00,,,0.00,181,WeatherCatV1.02B4,2013-07-01 02:12:00,
2013-06-30 20:27:00,94.9,54.6,26.66,NW,304,6.0,6.0,26,0.00,,,0.00,62,WeatherCatV1.02B4,2013-07-01 02:27:00,
2013-06-30 20:42:00,92.1,57.1,26.67,North,5,0.0,2.0,31,0.00,,,0.00,56,WeatherCatV1.02B4,2013-07-01 02:42:00,
2013-06-30 21:12:00,83.9,61.5,26.67,ESE,123,1.0,2.0,47,0.00,,,0.00,16,WeatherCatV1.02B4,2013-07-01 03:12:00,
2013-06-30 21:42:00,81.8,60.2,26.67,North,5,0.0,1.0,48,0.00,,,0.00,7,WeatherCatV1.02B4,2013-07-01 03:42:00,
2013-06-30 21:57:00,79.8,61.7,26.68,WSW,240,0.0,0.0,54,0.00,,,0.00,0,WeatherCatV1.02B4,2013-07-01 03:57:00,
2013-06-30 22:10:00,77.3,61.8,26.69,WSW,240,0.0,0.0,59,0.00,,,0.00,0,WeatherCatV1.02B4,2013-07-01 04:10:00,
2013-06-30 22:12:00,76.7,61.7,26.69,WSW,240,0.0,0.0,60,0.00,,,0.00,0,WeatherCatV1.02B4,2013-07-01 04:12:00,
2013-06-30 22:15:00,76.5,61.6,26.69,WSW,240,0.0,1.0,60,0.00,,,0.00,0,WeatherCatV1.02B4,2013-07-01 04:15:00,
2013-06-30 22:20:00,76.0,61.1,26.69,WSW,240,0.0,0.0,60,0.00,,,0.00,0,WeatherCatV1.02B4,2013-07-01 04:20:00,
2013-06-30 22:25:00,75.3,61.8,26.69,WSW,240,0.0,0.0,63,0.00,,,0.00,0,WeatherCatV1.02B4,2013-07-01 04:25:00,
2013-06-30 22:30:00,74.3,61.8,26.70,WSW,240,0.0,0.0,65,0.00,,,0.00,0,WeatherCatV1.02B4,2013-07-01 04:30:00,
2013-06-30 22:35:00,73.9,62.2,26.70,WSW,240,0.0,0.0,67,0.00,,,0.00,0,WeatherCatV1.02B4,2013-07-01 04:35:00,
2013-06-30 22:40:00,73.8,61.3,26.70,WSW,240,0.0,1.0,65,0.00,,,0.00,0,WeatherCatV1.02B4,2013-07-01 04:40:00,
2013-06-30 22:45:00,73.8,60.4,26.70,WSW,240,0.0,2.0,63,0.00,,,0.00,0,WeatherCatV1.02B4,2013-07-01 04:45:00,
2013-06-30 22:58:00,73.6,60.7,26.71,WSW,240,0.0,0.0,64,0.00,,,0.00,0,WeatherCatV1.02B4,2013-07-01 04:58:00,
2013-06-30 23:13:00,71.8,61.1,26.72,WSW,242,0.0,0.0,69,0.00,,,0.00,0,WeatherCatV1.02B4,2013-07-01 05:13:00,
2013-06-30 23:28:00,70.7,60.0,26.72,WSW,242,0.0,1.0,69,0.00,,,0.00,0,WeatherCatV1.02B4,2013-07-01 05:28:00,
2013-06-30 23:43:00,69.9,60.5,26.73,WSW,242,0.0,0.0,72,0.00,,,0.00,0,WeatherCatV1.02B4,2013-07-01 05:43:00,
2013-06-30 23:58:00,68.6,60.0,26.73,WSW,242,0.0,1.0,74,0.00,,,0.00,0,WeatherCatV1.02B4,2013-07-01 05:58:00,